Time;durP1;ratioP1;P1;durP2;ratioP2;P2;SDS_P1;SDS_P2;PMS_P1;PMS_P2;Temp;Humidity;BMP_temperature;BMP_pressure;BME280_temperature;BME280_humidity;BME280_pressure;Samples;Min_cycle;Max_cycle;Signal;HPM_P1;HPM_P2
2021/12/31 00:00:25;;;;;;;15.40;8.07;;;;;;;10.63;100.00;100581.38;4959359;28;20045;-83
2021/12/31 00:02:53;;;;;;;14.82;8.77;;;;;;;10.68;100.00;100577.75;4947711;28;20047;-83
2021/12/31 00:05:21;;;;;;;13.85;7.82;;;;;;;10.63;100.00;100570.81;4930773;28;20081;-83
2021/12/31 00:07:47;;;;;;;15.13;8.90;;;;;;;10.62;100.00;100577.00;4947467;28;20038;-84
2021/12/31 00:10:17;;;;;;;15.88;8.57;;;;;;;10.64;100.00;100575.19;4959791;28;20122;-84
2021/12/31 00:12:48;;;;;;;19.95;9.40;;;;;;;10.83;100.00;100565.94;4950849;28;20456;-84
2021/12/31 00:15:15;;;;;;;14.43;9.05;;;;;;;10.74;100.00;100581.13;4935968;28;20066;-84
2021/12/31 00:17:44;;;;;;;13.52;8.05;;;;;;;10.75;100.00;100580.22;4954347;28;20050;-83
2021/12/31 00:20:15;;;;;;;16.63;8.82;;;;;;;10.77;100.00;100575.78;4948676;28;20526;-85
2021/12/31 00:25:20;;;;;;;14.45;8.55;;;;;;;10.82;100.00;100565.97;4961317;28;20093;-84
2021/12/31 00:27:47;;;;;;;15.00;7.85;;;;;;;10.78;100.00;100564.31;4938186;28;20523;-85
2021/12/31 00:30:20;;;;;;;13.75;8.63;;;;;;;10.71;100.00;100559.16;4953906;28;20061;-86
2021/12/31 00:32:50;;;;;;;16.58;8.85;;;;;;;10.80;100.00;100555.44;4952064;28;20096;-85
2021/12/31 00:35:32;;;;;;;14.55;9.07;;;;;;;10.78;100.00;100559.91;4957851;28;20038;-84
2021/12/31 00:38:00;;;;;;;13.48;7.85;;;;;;;10.79;100.00;100568.69;4943836;28;20078;-84
2021/12/31 00:40:34;;;;;;;14.77;9.02;;;;;;;10.74;100.00;100560.84;4951210;28;20461;-83
2021/12/31 00:43:11;;;;;;;13.52;7.53;;;;;;;10.80;100.00;100563.38;4939291;28;20095;-85
2021/12/31 00:45:44;;;;;;;13.68;7.93;;;;;;;10.78;100.00;100557.25;4954891;28;20061;-85
2021/12/31 00:48:16;;;;;;;13.52;7.38;;;;;;;10.81;100.00;100569.53;4935203;28;20050;-84
2021/12/31 00:50:44;;;;;;;14.05;7.53;;;;;;;10.88;100.00;100571.13;4944487;28;20141;-85
2021/12/31 00:53:12;;;;;;;11.80;7.85;;;;;;;10.86;100.00;100559.72;4936381;28;20065;-83
2021/12/31 00:55:38;;;;;;;9.73;6.78;;;;;;;10.81;100.00;100564.22;4942799;28;20072;-84
2021/12/31 00:58:08;;;;;;;10.70;6.53;;;;;;;10.82;100.00;100565.97;4952751;28;20662;-84
2021/12/31 01:00:37;;;;;;;11.00;6.35;;;;;;;10.85;100.00;100564.16;4950325;28;20074;-84
2021/12/31 01:03:05;;;;;;;11.77;6.20;;;;;;;10.91;100.00;100561.34;4934307;28;20141;-85
2021/12/31 01:05:36;;;;;;;11.90;6.70;;;;;;;10.87;100.00;100558.81;4935761;28;20042;-85
2021/12/31 01:08:03;;;;;;;10.15;6.38;;;;;;;10.83;100.00;100563.28;4946690;28;20065;-84
2021/12/31 01:10:32;;;;;;;9.38;5.75;;;;;;;10.86;100.00;100560.59;4935373;28;20076;-82
2021/12/31 01:12:59;;;;;;;9.70;5.65;;;;;;;10.91;100.00;100573.69;4934865;28;20479;-84
2021/12/31 01:15:37;;;;;;;9.60;6.38;;;;;;;10.89;100.00;100570.22;4949838;28;20130;-84
2021/12/31 01:18:19;;;;;;;8.85;6.07;;;;;;;10.83;100.00;100576.50;4950029;28;20081;-85
2021/12/31 01:20:52;;;;;;;9.82;6.45;;;;;;;10.87;100.00;100570.25;4954092;28;20050;-86
2021/12/31 01:23:19;;;;;;;7.53;5.15;;;;;;;10.92;100.00;100578.94;4944599;28;20725;-83
2021/12/31 01:25:49;;;;;;;8.13;5.75;;;;;;;10.90;100.00;100577.22;4963553;28;20051;-84
2021/12/31 01:28:16;;;;;;;8.73;5.57;;;;;;;10.89;100.00;100575.50;4967906;28;20050;-84
2021/12/31 01:30:43;;;;;;;7.10;4.80;;;;;;;10.91;100.00;100579.84;4936047;28;20070;-84
2021/12/31 01:33:10;;;;;;;7.72;5.05;;;;;;;10.88;100.00;100585.22;4921482;28;20046;-85
2021/12/31 01:35:39;;;;;;;7.20;5.03;;;;;;;10.87;100.00;100586.13;4940420;28;20077;-84
2021/12/31 01:38:06;;;;;;;7.20;4.88;;;;;;;10.93;100.00;100587.72;4939727;28;20663;-85
2021/12/31 01:40:35;;;;;;;6.45;4.55;;;;;;;10.94;100.00;100592.13;4935993;28;20039;-84
2021/12/31 01:43:02;;;;;;;7.03;4.03;;;;;;;10.97;100.00;100584.13;4979625;28;20129;-85
2021/12/31 01:45:33;;;;;;;6.18;4.05;;;;;;;10.96;100.00;100582.38;4944506;28;20039;-85
2021/12/31 01:48:20;;;;;;;7.10;4.28;;;;;;;10.97;100.00;100581.47;4956438;28;20054;-84
2021/12/31 01:50:47;;;;;;;7.63;4.00;;;;;;;10.96;100.00;100579.75;4968324;28;20049;-84
2021/12/31 01:53:14;;;;;;;6.32;3.90;;;;;;;11.00;100.00;100581.41;4948865;28;20500;-86
2021/12/31 01:55:41;;;;;;;6.60;4.32;;;;;;;11.05;100.00;100587.47;4953676;28;20049;-84
2021/12/31 01:58:10;;;;;;;6.00;3.90;;;;;;;11.03;100.00;100588.41;4957047;28;20050;-84
2021/12/31 02:00:40;;;;;;;6.25;3.67;;;;;;;11.07;100.00;100584.78;4959230;28;20747;-83
2021/12/31 02:03:14;;;;;;;5.35;3.78;;;;;;;11.06;100.00;100573.31;4947421;28;20125;-84
2021/12/31 02:05:43;;;;;;;6.65;4.05;;;;;;;11.04;100.00;100575.16;4961776;28;20042;-84
2021/12/31 02:08:12;;;;;;;5.80;4.07;;;;;;;11.13;100.00;100580.22;4968846;28;20056;-83
2021/12/31 02:10:42;;;;;;;6.18;4.18;;;;;;;11.11;100.00;100579.38;4945146;28;20064;-85
2021/12/31 02:13:09;;;;;;;4.97;3.40;;;;;;;11.10;100.00;100584.69;4967210;28;20126;-84
2021/12/31 02:15:39;;;;;;;5.57;3.55;;;;;;;11.07;100.00;100576.84;4951158;28;20062;-84
2021/12/31 02:18:09;;;;;;;6.28;4.00;;;;;;;11.05;100.00;100578.66;4954096;28;20105;-85
2021/12/31 02:20:42;;;;;;;5.70;3.97;;;;;;;11.05;100.00;100582.16;4957580;28;20054;-85
2021/12/31 02:23:28;;;;;;;6.68;4.07;;;;;;;11.07;100.00;100585.63;4934368;28;20074;-84
2021/12/31 02:25:55;;;;;;;4.47;3.15;;;;;;;11.06;100.00;100585.69;4964287;28;20053;-85
2021/12/31 02:28:22;;;;;;;4.47;2.83;;;;;;;11.10;100.00;100589.97;4950410;28;20046;-84
2021/12/31 02:30:49;;;;;;;4.65;2.95;;;;;;;11.12;100.00;100589.06;4947281;28;20057;-84
2021/12/31 02:33:16;;;;;;;4.57;2.88;;;;;;;11.08;100.00;100591.78;4965585;28;20705;-84
2021/12/31 02:35:43;;;;;;;4.55;2.63;;;;;;;11.11;100.00;100592.59;4935300;28;20066;-84
2021/12/31 02:38:10;;;;;;;5.38;3.10;;;;;;;11.15;100.00;100588.09;4947399;28;20120;-84
2021/12/31 02:40:36;;;;;;;4.97;3.33;;;;;;;11.14;100.00;100581.94;4955796;28;20046;-85
2021/12/31 02:43:11;;;;;;;5.07;3.53;;;;;;;11.15;100.00;100581.03;4958351;28;20105;-85
2021/12/31 02:45:44;;;;;;;5.27;3.60;;;;;;;11.17;100.00;100583.63;4956638;28;20070;-84
2021/12/31 02:48:29;;;;;;;4.72;3.20;;;;;;;11.18;100.00;100586.28;4943903;28;20685;-84
2021/12/31 02:50:59;;;;;;;4.90;3.40;;;;;;;11.21;100.00;100583.53;4985308;28;20039;-85
2021/12/31 02:53:44;;;;;;;5.07;3.75;;;;;;;11.23;100.00;100587.00;4970726;28;20397;-85
2021/12/31 02:56:16;;;;;;;5.53;3.58;;;;;;;11.22;100.00;100582.63;4946824;28;20480;-84
2021/12/31 02:58:52;;;;;;;5.80;3.47;;;;;;;11.20;100.00;100573.88;4957683;23;20582;31
2021/12/31 03:01:19;;;;;;;6.57;3.55;;;;;;;11.21;100.00;100583.53;4946099;28;20043;-85
2021/12/31 03:03:48;;;;;;;6.72;3.88;;;;;;;11.20;100.00;100570.38;4937065;28;20433;-85
2021/12/31 03:06:20;;;;;;;;;;;;;;;11.22;100.00;100565.91;4936609;28;20125;-85
2021/12/31 03:08:54;;;;;;;6.93;3.97;;;;;;;11.18;100.00;100570.41;4950899;28;19926;-85
2021/12/31 03:11:23;;;;;;;6.90;4.32;;;;;;;11.17;100.00;100568.63;4921860;28;20043;-84
2021/12/31 03:13:54;;;;;;;5.60;3.80;;;;;;;11.17;100.00;100573.94;4952534;28;20058;-85
2021/12/31 03:16:22;;;;;;;7.22;4.60;;;;;;;11.20;100.00;100573.88;4951786;28;20134;-84
2021/12/31 03:18:50;;;;;;;7.95;5.45;;;;;;;11.23;100.00;100576.44;4944644;28;20137;-83
2021/12/31 03:21:21;;;;;;;6.95;4.32;;;;;;;11.19;100.00;100569.50;4936012;28;20043;-85
2021/12/31 03:23:50;;;;;;;6.55;4.43;;;;;;;11.26;100.00;100572.84;4934347;28;20408;-84
2021/12/31 03:26:16;;;;;;;6.38;4.55;;;;;;;11.22;100.00;100569.41;4915826;29;20416;-85
2021/12/31 03:28:43;;;;;;;5.45;4.15;;;;;;;11.20;100.00;100581.81;4928077;28;20049;-85
2021/12/31 03:31:10;;;;;;;5.97;3.83;;;;;;;11.20;100.00;100573.00;4935563;28;20058;-85
2021/12/31 03:33:38;;;;;;;7.75;4.45;;;;;;;11.22;100.00;100574.69;4927229;28;20054;-85
2021/12/31 03:36:07;;;;;;;6.35;4.15;;;;;;;11.18;100.00;100588.91;4935238;28;20481;-85
2021/12/31 03:38:35;;;;;;;7.22;4.30;;;;;;;11.20;100.00;100581.81;4935322;28;20062;-84
2021/12/31 03:41:02;;;;;;;7.03;4.43;;;;;;;11.15;100.00;100583.69;4922580;29;20067;-84
2021/12/31 03:43:29;;;;;;;6.82;4.35;;;;;;;11.14;100.00;100573.16;4928209;29;20113;-84
2021/12/31 03:45:56;;;;;;;6.93;3.83;;;;;;;11.13;100.00;100572.28;4930506;28;20054;-86
2021/12/31 03:48:23;;;;;;;8.80;4.72;;;;;;;11.15;100.00;100583.69;4936881;28;20041;-84
2021/12/31 03:50:50;;;;;;;7.00;3.63;;;;;;;11.13;100.00;100569.63;4924789;28;20050;-84
2021/12/31 03:53:17;;;;;;;6.97;3.90;;;;;;;11.10;100.00;100575.00;4920560;29;20412;-84
2021/12/31 03:55:44;;;;;;;4.53;3.33;;;;;;;11.07;100.00;100574.19;4947846;28;20043;-84
2021/12/31 03:58:11;;;;;;;5.47;3.97;;;;;;;11.03;100.00;100564.63;4931778;28;20046;-84
2021/12/31 04:00:38;;;;;;;8.15;4.40;;;;;;;11.04;100.00;100561.06;4923357;28;20070;-84
2021/12/31 04:03:07;;;;;;;8.75;4.20;;;;;;;11.08;100.00;100563.56;4949243;28;20042;-84
2021/12/31 04:05:36;;;;;;;8.40;4.53;;;;;;;11.07;100.00;100550.41;4937312;29;20092;-83
2021/12/31 04:08:07;;;;;;;7.05;4.28;;;;;;;11.04;100.00;100555.78;4915844;28;20039;-83
2021/12/31 04:10:34;;;;;;;7.13;3.80;;;;;;;11.07;100.00;100553.03;4947397;28;20047;-83
2021/12/31 04:13:01;;;;;;;8.75;3.80;;;;;;;11.02;100.00;100554.94;4931242;28;20039;-84
2021/12/31 04:15:28;;;;;;;7.72;4.50;;;;;;;11.06;100.00;100560.09;4946228;28;20073;-83
2021/12/31 04:17:54;;;;;;;7.88;4.22;;;;;;;10.97;100.00;100541.81;4931452;28;20068;-82
2021/12/31 04:20:34;;;;;;;7.43;3.90;;;;;;;10.96;100.00;100551.53;4939634;28;20663;-83
2021/12/31 04:23:03;;;;;;;9.75;4.95;;;;;;;10.95;100.00;100543.66;4927598;28;20051;-83
2021/12/31 04:25:30;;;;;;;7.13;3.95;;;;;;;10.94;100.00;100553.34;4948692;28;20046;-83
2021/12/31 04:27:57;;;;;;;5.90;4.00;;;;;;;10.93;100.00;100537.50;4931519;28;20050;-83
2021/12/31 04:30:23;;;;;;;6.75;3.47;;;;;;;10.89;100.00;100539.38;4925574;28;20101;-83
2021/12/31 04:32:50;;;;;;;7.07;4.07;;;;;;;10.90;100.00;100530.53;4957626;28;20083;-83
2021/12/31 04:35:20;;;;;;;7.65;4.00;;;;;;;10.95;100.00;100533.06;4950087;28;20515;-83
2021/12/31 04:37:47;;;;;;;6.13;4.05;;;;;;;10.93;100.00;100534.84;4941593;29;20073;-84
2021/12/31 04:40:14;;;;;;;6.03;4.30;;;;;;;10.92;100.00;100539.28;4932429;28;20500;-83
2021/12/31 04:42:47;;;;;;;11.23;4.47;;;;;;;10.94;100.00;100533.97;4917034;28;20053;-83
2021/12/31 04:45:14;;;;;;;6.45;4.25;;;;;;;10.90;100.00;100524.38;4923450;28;20464;-83
2021/12/31 04:47:41;;;;;;;5.63;3.97;;;;;;;10.87;100.00;100537.69;4936327;28;20400;-83
2021/12/31 04:50:08;;;;;;;9.10;4.43;;;;;;;10.89;100.00;100531.44;4941298;28;20047;-82
2021/12/31 04:52:35;;;;;;;10.60;5.20;;;;;;;10.90;100.00;100533.16;4951178;28;20047;-83
2021/12/31 04:55:03;;;;;;;5.97;4.15;;;;;;;10.89;100.00;100528.78;4920450;28;20047;-83
2021/12/31 04:57:29;;;;;;;5.60;4.53;;;;;;;10.86;100.00;100535.94;4937245;28;20093;-84
2021/12/31 04:59:57;;;;;;;10.32;4.80;;;;;;;10.90;100.00;100541.09;4935493;28;20049;-83
2021/12/31 05:02:24;;;;;;;7.03;3.90;;;;;;;10.92;100.00;100522.56;4947507;28;20050;-86
2021/12/31 05:04:51;;;;;;;5.93;4.55;;;;;;;10.86;100.00;100533.28;4945369;28;20038;-85
2021/12/31 05:07:18;;;;;;;8.65;4.38;;;;;;;10.91;100.00;100548.13;4928709;28;20038;-84
2021/12/31 05:09:45;;;;;;;8.65;4.97;;;;;;;10.89;100.00;100539.38;4921352;28;20046;-85
2021/12/31 05:12:15;;;;;;;9.43;4.75;;;;;;;10.89;100.00;100546.44;4951870;28;20497;-85
2021/12/31 05:14:42;;;;;;;7.00;4.50;;;;;;;10.86;100.00;100546.50;4942501;29;20039;-86
2021/12/31 05:17:09;;;;;;;9.48;5.40;;;;;;;10.94;100.00;100550.72;4920992;29;20497;-86
2021/12/31 05:19:36;;;;;;;6.93;4.82;;;;;;;10.92;100.00;100554.28;4953459;28;20046;-86
2021/12/31 05:22:03;;;;;;;7.32;4.60;;;;;;;10.89;100.00;100554.34;4941794;28;20062;-85
2021/12/31 05:24:31;;;;;;;10.18;5.13;;;;;;;10.95;100.00;100551.56;4938721;28;20186;-83
2021/12/31 05:26:58;;;;;;;8.73;4.63;;;;;;;11.04;100.00;100555.78;4957207;28;20140;-84
2021/12/31 05:29:25;;;;;;;6.85;4.75;;;;;;;10.97;100.00;100552.41;4939840;28;20039;-84
2021/12/31 05:31:53;;;;;;;7.47;5.20;;;;;;;10.96;100.00;100551.53;4946589;28;20572;-84
2021/12/31 05:34:20;;;;;;;9.00;4.35;;;;;;;10.99;100.00;100555.88;4937244;28;20038;-84
2021/12/31 05:36:48;;;;;;;8.88;5.07;;;;;;;10.97;100.00;100561.19;4952544;28;20046;-84
2021/12/31 05:39:14;;;;;;;8.35;4.53;;;;;;;10.90;100.00;100569.31;4923740;28;20110;-84
2021/12/31 05:41:43;;;;;;;10.77;5.72;;;;;;;10.94;100.00;100563.94;4940567;28;20050;-84
2021/12/31 05:44:10;;;;;;;7.05;5.00;;;;;;;10.95;100.00;100555.09;4925222;28;20058;-85
2021/12/31 05:46:37;;;;;;;9.35;5.35;;;;;;;11.01;100.00;100569.91;4942705;28;20449;-84
2021/12/31 05:49:04;;;;;;;9.35;5.20;;;;;;;10.97;100.00;100563.84;4938760;28;20051;-83
2021/12/31 05:51:32;;;;;;;6.43;4.68;;;;;;;10.93;100.00;100572.75;4942696;28;20036;-84
2021/12/31 05:53:59;;;;;;;10.52;5.13;;;;;;;10.99;100.00;100563.81;4946509;28;20105;-84
2021/12/31 05:56:26;;;;;;;7.50;4.40;;;;;;;10.97;100.00;100562.97;4960807;28;20057;-83
2021/12/31 05:58:53;;;;;;;9.35;5.53;;;;;;;11.02;100.00;100568.16;4944124;28;20596;-83
2021/12/31 06:01:20;;;;;;;8.20;5.57;;;;;;;10.99;100.00;100569.09;4938645;28;20047;-84
2021/12/31 06:03:48;;;;;;;7.43;4.75;;;;;;;10.99;100.00;100579.66;4954489;28;20053;-85
2021/12/31 06:06:15;;;;;;;8.52;5.40;;;;;;;10.97;100.00;100571.78;4941294;28;20409;-84
2021/12/31 06:08:42;;;;;;;10.05;5.65;;;;;;;11.01;100.00;100572.56;4952194;28;20426;-84
2021/12/31 06:11:09;;;;;;;9.43;5.32;;;;;;;11.03;100.00;100578.69;4941571;28;20535;-84
2021/12/31 06:13:37;;;;;;;7.00;4.90;;;;;;;10.99;100.00;100577.03;4938743;28;20435;-85
2021/12/31 06:16:05;;;;;;;9.50;5.40;;;;;;;11.05;100.00;100576.00;4935492;28;20073;-85
2021/12/31 06:18:32;;;;;;;11.30;5.78;;;;;;;11.00;100.00;100584.91;4920776;28;20047;-84
2021/12/31 06:21:00;;;;;;;10.45;5.72;;;;;;;11.01;100.00;100585.78;4945677;28;20503;-83
2021/12/31 06:23:27;;;;;;;8.57;5.47;;;;;;;11.03;100.00;100589.28;4944838;28;20047;-83
2021/12/31 06:25:54;;;;;;;10.73;6.30;;;;;;;11.10;100.00;100590.88;4931983;28;20135;-86
2021/12/31 06:28:20;;;;;;;12.25;6.00;;;;;;;11.11;100.00;100586.44;4929270;28;20049;-86
2021/12/31 06:30:47;;;;;;;9.95;5.97;;;;;;;11.08;100.00;100582.09;4939416;28;20416;-85
2021/12/31 06:33:14;;;;;;;11.70;5.43;;;;;;;11.06;100.00;100583.91;4913277;29;20043;-82
2021/12/31 06:35:41;;;;;;;10.40;6.10;;;;;;;11.08;100.00;100590.00;4935828;28;20053;-84
2021/12/31 06:38:08;;;;;;;10.18;6.18;;;;;;;11.07;100.00;100587.41;4942369;28;20047;-85
2021/12/31 06:40:36;;;;;;;8.98;6.57;;;;;;;11.02;100.00;100592.81;4924982;28;20055;-86
2021/12/31 06:43:03;;;;;;;9.75;6.25;;;;;;;11.04;100.00;100595.44;4938815;28;20043;-85
2021/12/31 06:45:30;;;;;;;10.07;5.88;;;;;;;10.97;100.00;100597.34;4946010;29;20037;-85
2021/12/31 06:47:57;;;;;;;8.25;6.45;;;;;;;10.95;100.00;100593.88;4930611;28;20039;-85
2021/12/31 06:50:28;;;;;;;10.73;6.68;;;;;;;10.97;100.00;100592.06;4955225;28;20039;-84
2021/12/31 06:52:55;;;;;;;10.52;6.65;;;;;;;10.97;100.00;100597.34;4947158;28;20050;-83
2021/12/31 06:55:24;;;;;;;8.95;5.63;;;;;;;10.90;100.00;100593.09;4953786;28;20038;-83
2021/12/31 06:57:52;;;;;;;10.93;6.40;;;;;;;10.91;100.00;100600.97;4943612;28;20042;-84
2021/12/31 07:00:19;;;;;;;10.15;6.47;;;;;;;10.90;100.00;100607.19;4941651;28;20049;-84
2021/12/31 07:02:46;;;;;;;8.70;6.43;;;;;;;10.92;100.00;100596.56;4936337;29;20071;-83
2021/12/31 07:05:12;;;;;;;11.57;7.38;;;;;;;10.92;100.00;100601.84;4923156;28;20039;-84
2021/12/31 07:07:39;;;;;;;9.45;6.68;;;;;;;10.98;100.00;100597.28;4925156;28;20051;-83
2021/12/31 07:10:06;;;;;;;10.85;6.93;;;;;;;10.95;100.00;100602.66;4940314;29;20077;-86
2021/12/31 07:12:33;;;;;;;9.55;6.50;;;;;;;10.98;100.00;100607.00;4936832;29;20048;-87
2021/12/31 07:15:00;;;;;;;8.90;6.75;;;;;;;10.93;100.00;100608.88;4945317;28;20050;-85
2021/12/31 07:17:29;;;;;;;10.07;6.53;;;;;;;10.93;100.00;100608.88;4930778;28;20042;-83
2021/12/31 07:19:57;;;;;;;11.10;5.90;;;;;;;10.87;100.00;100609.91;4938161;28;20053;-86
2021/12/31 07:22:24;;;;;;;9.75;5.90;;;;;;;10.90;100.00;100606.31;4957630;28;20180;-85
2021/12/31 07:24:51;;;;;;;12.63;6.50;;;;;;;10.93;100.00;100598.28;4944903;28;20054;-85
2021/12/31 07:27:18;;;;;;;8.35;5.70;;;;;;;10.89;100.00;100608.09;4931875;28;20051;-85
2021/12/31 07:29:45;;;;;;;7.47;5.53;;;;;;;10.91;100.00;100614.19;4944207;28;20074;-83
2021/12/31 07:32:12;;;;;;;7.40;5.50;;;;;;;10.90;100.00;100608.94;4939734;28;20507;-84
2021/12/31 07:34:38;;;;;;;10.02;6.20;;;;;;;10.88;100.00;100609.00;4959909;28;20109;-85
2021/12/31 07:37:05;;;;;;;9.35;6.60;;;;;;;10.86;100.00;100613.44;4937668;28;20043;-85
2021/12/31 07:39:34;;;;;;;8.55;5.57;;;;;;;10.95;100.00;100612.38;4921708;28;20039;-85
2021/12/31 07:42:01;;;;;;;7.53;6.10;;;;;;;10.97;100.00;100607.91;4941650;28;20560;-85
2021/12/31 07:44:27;;;;;;;9.38;5.90;;;;;;;10.99;100.00;100606.09;4943834;28;20504;-85
2021/12/31 07:46:54;;;;;;;8.00;5.53;;;;;;;10.99;100.00;100600.81;4936740;29;20054;-84
2021/12/31 07:49:21;;;;;;;7.78;4.93;;;;;;;10.96;100.00;100598.25;4933647;28;20055;-80
2021/12/31 07:51:47;;;;;;;8.05;5.82;;;;;;;11.03;100.00;100597.22;4931932;28;20055;-84
2021/12/31 07:54:14;;;;;;;8.32;5.53;;;;;;;11.04;100.00;100595.44;4937544;29;20039;-81
2021/12/31 07:56:41;;;;;;;8.15;5.55;;;;;;;11.10;100.00;100605.84;4947699;28;20047;-82
2021/12/31 07:59:15;;;;;;;6.72;5.45;;;;;;;11.09;100.00;100612.03;4932297;28;20050;-84
2021/12/31 08:01:48;;;;;;;25.88;15.93;;;;;;;11.12;100.00;100597.00;4950235;28;20047;-84
2021/12/31 08:04:18;;;;;;;21.10;13.48;;;;;;;11.10;100.00;100603.19;4941562;28;20066;-82
2021/12/31 08:06:45;;;;;;;16.73;10.98;;;;;;;11.06;100.00;100610.34;4928544;28;20058;-83
2021/12/31 08:09:11;;;;;;;32.70;22.25;;;;;;;11.10;100.00;100608.47;4935902;28;20043;-84
2021/12/31 08:11:39;;;;;;;15.98;11.43;;;;;;;11.10;100.00;100601.44;4935038;28;20058;-82
2021/12/31 08:14:06;;;;;;;15.32;9.23;;;;;;;11.12;100.00;100593.47;4931461;28;20042;-82
2021/12/31 08:16:34;;;;;;;14.85;11.57;;;;;;;11.16;100.00;100605.69;4938936;28;20055;-84
2021/12/31 08:19:01;;;;;;;9.93;7.07;;;;;;;11.19;100.00;100595.94;4920590;29;20079;-83
2021/12/31 08:21:28;;;;;;;9.68;6.93;;;;;;;11.19;100.00;100589.78;4939079;28;20049;-84
2021/12/31 08:23:58;;;;;;;9.30;7.55;;;;;;;11.20;100.00;100581.81;4926221;28;20452;-83
2021/12/31 08:26:27;;;;;;;6.95;5.75;;;;;;;11.16;100.00;100584.56;4935421;28;20492;-84
2021/12/31 08:28:55;;;;;;;9.20;6.55;;;;;;;11.20;100.00;100580.94;4934848;29;20090;-84
2021/12/31 08:31:22;;;;;;;9.93;6.53;;;;;;;11.22;100.00;100589.69;4963240;28;20046;-83
2021/12/31 08:33:48;;;;;;;10.05;7.88;;;;;;;11.24;100.00;100578.16;4939209;28;20485;-84
2021/12/31 08:36:15;;;;;;;9.60;8.10;;;;;;;11.28;100.00;100590.44;4931150;28;20957;-82
2021/12/31 08:38:42;;;;;;;10.20;7.20;;;;;;;11.24;100.00;100591.38;4922161;28;20055;-83
2021/12/31 08:41:08;;;;;;;9.95;6.60;;;;;;;11.28;100.00;100594.84;4926230;28;20052;-85
2021/12/31 08:43:55;;;;;;;10.50;7.88;;;;;;;11.31;100.00;100588.59;4944957;28;20398;-82
2021/12/31 08:46:22;;;;;;;11.02;8.13;;;;;;;11.24;100.00;100598.47;4929516;28;20039;-84
2021/12/31 08:48:49;;;;;;;10.20;8.85;;;;;;;11.39;100.00;100586.63;4946129;28;20042;-81
2021/12/31 08:51:16;;;;;;;8.77;7.10;;;;;;;11.40;100.00;100591.03;4953933;28;20412;-81
2021/12/31 08:53:42;;;;;;;8.48;6.97;;;;;;;11.36;100.00;100592.03;4936980;28;20046;-82
2021/12/31 08:56:09;;;;;;;10.55;7.75;;;;;;;11.35;100.00;100591.16;4931964;28;20609;-81
2021/12/31 08:58:36;;;;;;;7.60;6.50;;;;;;;11.31;100.00;100604.47;4949613;28;20405;-83
2021/12/31 09:01:03;;;;;;;10.07;7.00;;;;;;;11.38;100.00;100595.50;4926989;28;20050;-81
2021/12/31 09:03:29;;;;;;;12.30;8.10;;;;;;;11.39;100.00;100600.72;4950531;28;20049;-81
2021/12/31 09:05:56;;;;;;;10.13;7.63;;;;;;;11.36;100.00;100598.19;4938617;28;20049;-81
2021/12/31 09:08:23;;;;;;;12.75;8.25;;;;;;;11.42;100.00;100605.06;4949444;28;20106;-83
2021/12/31 09:10:50;;;;;;;10.48;7.00;;;;;;;11.43;100.00;100609.44;4937842;28;20047;-81
2021/12/31 09:13:17;;;;;;;9.30;6.78;;;;;;;11.48;100.00;100604.94;4951374;28;20071;-84
2021/12/31 09:15:43;;;;;;;8.45;6.63;;;;;;;11.53;100.00;100621.56;4922796;28;20097;-82
2021/12/31 09:18:10;;;;;;;7.80;6.93;;;;;;;11.47;100.00;100621.72;4954010;28;20119;-80
2021/12/31 09:20:37;;;;;;;8.52;6.78;;;;;;;11.53;100.00;100621.56;4955312;28;20051;-83
2021/12/31 09:23:04;;;;;;;9.45;7.35;;;;;;;11.46;100.00;100628.78;4967644;28;20053;-84
2021/12/31 09:25:30;;;;;;;9.00;7.50;;;;;;;11.46;100.00;100618.19;4946253;28;20035;-84
2021/12/31 09:27:57;;;;;;;8.00;6.50;;;;;;;11.50;100.00;100606.63;4944112;29;20050;-83
2021/12/31 09:30:24;;;;;;;10.43;7.03;;;;;;;11.51;100.00;100618.06;4943284;28;20045;-83
2021/12/31 09:32:51;;;;;;;8.07;7.07;;;;;;;11.61;100.00;100614.31;4938329;29;20044;-82
2021/12/31 09:35:18;;;;;;;7.53;6.53;;;;;;;11.58;100.00;100611.72;4979164;28;20047;-84
2021/12/31 09:37:44;;;;;;;8.20;6.70;;;;;;;11.64;100.00;100606.28;4945978;28;20046;-84
2021/12/31 09:40:15;;;;;;;7.63;6.28;;;;;;;11.66;100.00;100593.88;4934435;28;20051;-85
2021/12/31 09:43:01;;;;;;;9.10;6.65;;;;;;;11.70;100.00;100597.31;4944712;28;20058;-86
2021/12/31 09:45:28;;;;;;;8.75;5.93;;;;;;;11.68;100.00;100591.16;4935221;28;20492;-85
2021/12/31 09:48:07;;;;;;;6.45;5.82;;;;;;;11.70;100.00;100595.53;4942781;28;20070;-83
2021/12/31 09:50:36;;;;;;;6.97;6.28;;;;;;;11.69;100.00;100587.66;4937739;29;20054;-85
2021/12/31 09:53:04;;;;;;;7.95;6.07;;;;;;;11.71;100.00;100591.13;4932433;28;20070;-84
2021/12/31 09:55:39;;;;;;;6.00;5.40;;;;;;;11.74;100.00;100591.03;4935395;28;20407;-83
2021/12/31 09:58:06;;;;;;;;;;;;;;;11.76;100.00;100576.81;4973273;28;20046;-83
2021/12/31 10:00:47;;;;;;;8.45;6.63;;;;;;;11.75;100.00;100575.09;4938882;28;19959;-84
2021/12/31 10:03:16;;;;;;;10.48;9.30;;;;;;;11.79;100.00;100582.06;4944348;28;20054;-85
2021/12/31 10:05:48;;;;;;;8.00;6.30;;;;;;;11.88;100.00;100574.81;4965520;28;20111;-84
2021/12/31 10:08:20;;;;;;;7.05;5.68;;;;;;;11.91;100.00;100582.66;4954579;28;20059;-85
2021/12/31 10:11:05;;;;;;;7.05;5.63;;;;;;;11.91;100.00;100575.59;4942715;28;20503;-84
2021/12/31 10:13:33;;;;;;;5.32;4.60;;;;;;;11.90;100.00;100578.28;4928047;28;20529;-86
2021/12/31 10:16:00;;;;;;;6.20;5.60;;;;;;;11.91;100.00;100574.72;4932331;28;20118;-85
2021/12/31 10:18:37;;;;;;;8.18;4.55;;;;;;;11.97;100.00;100570.13;4946142;28;20046;-81
2021/12/31 10:21:15;;;;;;;5.68;5.18;;;;;;;11.93;100.00;100565.81;4959176;28;20480;-85
2021/12/31 10:23:42;;;;;;;5.90;5.30;;;;;;;11.92;100.00;100560.56;4939864;29;20690;-86
2021/12/31 10:26:11;;;;;;;5.20;4.45;;;;;;;11.88;100.00;100558.94;4940167;28;20043;-86
2021/12/31 10:28:57;;;;;;;7.07;5.28;;;;;;;11.93;100.00;100567.59;4922291;28;20530;-85
2021/12/31 10:31:27;;;;;;;5.65;4.40;;;;;;;11.92;100.00;100579.09;4940186;28;20481;-84
2021/12/31 10:33:54;;;;;;;6.10;4.47;;;;;;;11.86;100.00;100568.72;4941843;28;20460;-87
2021/12/31 10:36:37;;;;;;;6.65;4.25;;;;;;;11.87;100.00;100576.59;4940244;29;20961;-85
2021/12/31 10:39:21;;;;;;;6.13;3.80;;;;;;;11.89;100.00;100572.13;4928884;28;20047;-84
2021/12/31 10:41:57;;;;;;;;;;;;;;;11.93;100.00;100568.47;4946047;28;20425;-85
2021/12/31 10:44:43;;;;;;;4.28;3.60;;;;;;;11.97;100.00;100559.53;4928293;29;19929;-86
2021/12/31 10:47:38;;;;;;;5.32;3.70;;;;;;;11.99;100.00;100559.50;4949510;28;20067;-87
2021/12/31 10:50:13;;;;;;;4.05;3.45;;;;;;;12.04;100.00;100573.50;4954947;28;20061;-87
2021/12/31 10:52:55;;;;;;;5.03;3.33;;;;;;;12.10;100.00;100565.34;4928647;29;20062;-85
2021/12/31 10:55:27;;;;;;;5.85;3.97;;;;;;;12.15;100.00;100566.09;4937414;28;20045;-86
2021/12/31 10:57:57;;;;;;;6.07;4.22;;;;;;;12.16;100.00;100562.53;4932287;28;20054;-87
2021/12/31 11:00:27;;;;;;;5.35;4.13;;;;;;;12.21;100.00;100570.38;4939268;28;20058;-86
2021/12/31 11:02:55;;;;;;;4.57;3.20;;;;;;;12.22;100.00;100564.16;4941580;28;20395;-87
2021/12/31 11:05:24;;;;;;;4.72;3.15;;;;;;;12.18;100.00;100563.34;4953626;28;20035;-87
2021/12/31 11:07:53;;;;;;;3.28;2.97;;;;;;;12.22;100.00;100554.41;4924292;28;20043;-85
2021/12/31 11:10:37;;;;;;;4.18;3.22;;;;;;;12.20;100.00;100547.44;4924834;28;20476;-86
2021/12/31 11:13:25;;;;;;;4.28;3.10;;;;;;;12.18;100.00;100550.09;4933865;28;20050;-89
2021/12/31 11:15:57;;;;;;;6.05;3.10;;;;;;;12.22;100.00;100556.19;4950863;28;20066;-88
2021/12/31 11:18:24;;;;;;;4.07;3.30;;;;;;;12.15;100.00;100562.59;4929499;28;20042;-87
2021/12/31 11:21:00;;;;;;;4.40;2.95;;;;;;;12.17;100.00;100553.69;4952510;28;20449;-85
2021/12/31 11:23:29;;;;;;;3.63;2.70;;;;;;;12.23;100.00;100560.59;4953851;28;20051;-87
2021/12/31 11:26:04;;;;;;;4.15;3.13;;;;;;;12.23;100.00;100560.59;4947762;28;20432;-87
2021/12/31 11:28:33;;;;;;;3.15;2.80;;;;;;;12.17;100.00;100556.31;4932431;28;20042;-88